sensor_id;sensor_type;location;lat;lon;timestamp;pressure;altitude;pressure_sealevel;temperature;humidity
71976;BME280;60680;52.182;5.398;2022-07-17T00:02:04;102803.31;;;16.12;63.55
71976;BME280;60680;52.182;5.398;2022-07-17T00:04:30;102802.38;;;16.13;63.55
71976;BME280;60680;52.182;5.398;2022-07-17T00:06:57;102799.84;;;16.11;63.56
71976;BME280;60680;52.182;5.398;2022-07-17T00:09:23;102803.38;;;16.10;63.59
71976;BME280;60680;52.182;5.398;2022-07-17T00:11:50;102801.19;;;15.99;64.19
71976;BME280;60680;52.182;5.398;2022-07-17T00:14:16;102806.44;;;15.99;63.74
71976;BME280;60680;52.182;5.398;2022-07-17T00:16:43;102803.28;;;15.91;64.60
71976;BME280;60680;52.182;5.398;2022-07-17T00:19:10;102799.22;;;15.84;64.15
71976;BME280;60680;52.182;5.398;2022-07-17T00:21:36;102791.53;;;15.79;64.38
71976;BME280;60680;52.182;5.398;2022-07-17T00:24:03;102787.38;;;15.74;64.59
71976;BME280;60680;52.182;5.398;2022-07-17T00:26:32;102790.00;;;15.74;64.86
71976;BME280;60680;52.182;5.398;2022-07-17T00:28:59;102796.06;;;15.76;64.84
71976;BME280;60680;52.182;5.398;2022-07-17T00:31:25;102798.94;;;15.68;65.42
71976;BME280;60680;52.182;5.398;2022-07-17T00:33:52;102795.47;;;15.67;65.60
71976;BME280;60680;52.182;5.398;2022-07-17T00:36:19;102795.41;;;15.69;65.51
71976;BME280;60680;52.182;5.398;2022-07-17T00:38:45;102795.53;;;15.66;65.27
71976;BME280;60680;52.182;5.398;2022-07-17T00:41:14;102799.94;;;15.65;65.43
71976;BME280;60680;52.182;5.398;2022-07-17T00:43:40;102788.44;;;15.68;65.86
71976;BME280;60680;52.182;5.398;2022-07-17T00:46:07;102785.78;;;15.69;65.43
71976;BME280;60680;52.182;5.398;2022-07-17T00:48:33;102781.44;;;15.68;65.52
71976;BME280;60680;52.182;5.398;2022-07-17T00:51:00;102791.06;;;15.68;65.02
71976;BME280;60680;52.182;5.398;2022-07-17T00:53:26;102790.47;;;15.61;65.35
71976;BME280;60680;52.182;5.398;2022-07-17T00:55:54;102791.50;;;15.57;65.18
71976;BME280;60680;52.182;5.398;2022-07-17T00:58:23;102788.22;;;15.52;65.78
71976;BME280;60680;52.182;5.398;2022-07-17T01:00:52;102787.72;;;15.42;65.68
71976;BME280;60680;52.182;5.398;2022-07-17T01:03:21;102801.78;;;15.41;66.06
71976;BME280;60680;52.182;5.398;2022-07-17T01:05:48;102795.00;;;15.36;65.88
71976;BME280;60680;52.182;5.398;2022-07-17T01:08:15;102801.16;;;15.35;66.04
71976;BME280;60680;52.182;5.398;2022-07-17T01:10:42;102798.72;;;15.30;66.54
71976;BME280;60680;52.182;5.398;2022-07-17T01:13:09;102794.31;;;15.31;66.03
71976;BME280;60680;52.182;5.398;2022-07-17T01:15:38;102798.78;;;15.28;66.34
71976;BME280;60680;52.182;5.398;2022-07-17T01:18:06;102799.56;;;15.31;65.76
71976;BME280;60680;52.182;5.398;2022-07-17T01:20:38;102798.78;;;15.28;65.49
71976;BME280;60680;52.182;5.398;2022-07-17T01:23:05;102796.34;;;15.24;65.61
71976;BME280;60680;52.182;5.398;2022-07-17T01:25:32;102799.19;;;15.18;66.52
71976;BME280;60680;52.182;5.398;2022-07-17T01:27:59;102797.09;;;15.04;67.25
71976;BME280;60680;52.182;5.398;2022-07-17T01:30:26;102798.00;;;15.03;66.75
71976;BME280;60680;52.182;5.398;2022-07-17T01:32:53;102795.63;;;14.97;66.46
71976;BME280;60680;52.182;5.398;2022-07-17T01:35:20;102796.28;;;15.02;66.24
71976;BME280;60680;52.182;5.398;2022-07-17T01:37:47;102797.88;;;15.06;66.52
71976;BME280;60680;52.182;5.398;2022-07-17T01:40:15;102793.66;;;15.02;66.71
71976;BME280;60680;52.182;5.398;2022-07-17T01:42:43;102789.56;;;14.95;66.81
71976;BME280;60680;52.182;5.398;2022-07-17T01:45:11;102789.56;;;14.95;66.78
71976;BME280;60680;52.182;5.398;2022-07-17T01:47:37;102787.75;;;14.97;66.11
71976;BME280;60680;52.182;5.398;2022-07-17T01:50:04;102781.66;;;14.96;66.25
71976;BME280;60680;52.182;5.398;2022-07-17T01:52:36;102779.97;;;14.94;65.87
71976;BME280;60680;52.182;5.398;2022-07-17T01:55:05;102773.28;;;14.86;66.70
71976;BME280;60680;52.182;5.398;2022-07-17T01:57:32;102779.59;;;14.81;67.34
71976;BME280;60680;52.182;5.398;2022-07-17T01:59:59;102770.88;;;14.80;66.66
71976;BME280;60680;52.182;5.398;2022-07-17T02:02:26;102787.81;;;14.72;66.47
71976;BME280;60680;52.182;5.398;2022-07-17T02:04:53;102784.16;;;14.76;66.95
71976;BME280;60680;52.182;5.398;2022-07-17T02:07:19;102772.75;;;14.77;66.22
71976;BME280;60680;52.182;5.398;2022-07-17T02:09:46;102774.66;;;14.73;66.64
71976;BME280;60680;52.182;5.398;2022-07-17T02:12:12;102781.13;;;14.63;66.62
71976;BME280;60680;52.182;5.398;2022-07-17T02:14:38;102783.75;;;14.63;66.46
71976;BME280;60680;52.182;5.398;2022-07-17T02:17:05;102787.13;;;14.66;66.05
71976;BME280;60680;52.182;5.398;2022-07-17T02:19:33;102792.63;;;14.59;66.22
71976;BME280;60680;52.182;5.398;2022-07-17T02:21:59;102790.97;;;14.56;66.77
71976;BME280;60680;52.182;5.398;2022-07-17T02:24:25;102788.59;;;14.48;66.75
71976;BME280;60680;52.182;5.398;2022-07-17T02:26:52;102782.50;;;14.48;66.87
71976;BME280;60680;52.182;5.398;2022-07-17T02:29:18;102782.72;;;14.42;67.45
71976;BME280;60680;52.182;5.398;2022-07-17T02:31:45;102790.47;;;14.45;66.64
71976;BME280;60680;52.182;5.398;2022-07-17T02:34:11;102794.25;;;14.36;67.32
71976;BME280;60680;52.182;5.398;2022-07-17T02:36:38;102790.63;;;14.40;67.00
71976;BME280;60680;52.182;5.398;2022-07-17T02:39:05;102790.59;;;14.42;66.49
71976;BME280;60680;52.182;5.398;2022-07-17T02:41:31;102791.34;;;14.45;66.25
71976;BME280;60680;52.182;5.398;2022-07-17T02:43:58;102794.84;;;14.44;66.76
71976;BME280;60680;52.182;5.398;2022-07-17T02:46:24;102804.72;;;14.36;66.82
71976;BME280;60680;52.182;5.398;2022-07-17T02:48:51;102803.09;;;14.34;67.25
71976;BME280;60680;52.182;5.398;2022-07-17T02:51:18;102814.41;;;14.34;67.76
71976;BME280;60680;52.182;5.398;2022-07-17T02:53:46;102806.47;;;14.37;67.16
71976;BME280;60680;52.182;5.398;2022-07-17T02:56:13;102806.56;;;14.34;67.73
71976;BME280;60680;52.182;5.398;2022-07-17T02:58:39;102802.19;;;14.35;67.35
71976;BME280;60680;52.182;5.398;2022-07-17T03:01:06;102789.13;;;14.33;67.53
71976;BME280;60680;52.182;5.398;2022-07-17T03:03:32;102789.13;;;14.33;67.27
71976;BME280;60680;52.182;5.398;2022-07-17T03:06:00;102788.56;;;14.25;68.14
71976;BME280;60680;52.182;5.398;2022-07-17T03:08:27;102780.00;;;14.20;67.23
71976;BME280;60680;52.182;5.398;2022-07-17T03:10:53;102779.25;;;14.16;67.53
71976;BME280;60680;52.182;5.398;2022-07-17T03:13:20;102777.00;;;14.05;68.28
71976;BME280;60680;52.182;5.398;2022-07-17T03:15:46;102780.59;;;14.03;68.50
71976;BME280;60680;52.182;5.398;2022-07-17T03:18:13;102791.22;;;13.98;68.97
71976;BME280;60680;52.182;5.398;2022-07-17T03:20:40;102791.22;;;13.98;68.92
71976;BME280;60680;52.182;5.398;2022-07-17T03:23:07;102797.28;;;13.99;68.43
71976;BME280;60680;52.182;5.398;2022-07-17T03:25:33;102796.44;;;13.98;68.31
71976;BME280;60680;52.182;5.398;2022-07-17T03:28:00;102789.50;;;13.97;68.94
71976;BME280;60680;52.182;5.398;2022-07-17T03:30:27;102803.50;;;13.96;68.71
71976;BME280;60680;52.182;5.398;2022-07-17T03:32:53;102807.81;;;13.97;69.01
71976;BME280;60680;52.182;5.398;2022-07-17T03:35:20;102805.03;;;14.02;68.18
71976;BME280;60680;52.182;5.398;2022-07-17T03:37:47;102800.59;;;14.04;67.85
71976;BME280;60680;52.182;5.398;2022-07-17T03:40:13;102797.03;;;14.06;68.13
71976;BME280;60680;52.182;5.398;2022-07-17T03:42:40;102796.22;;;14.04;68.48
71976;BME280;60680;52.182;5.398;2022-07-17T03:45:06;102805.81;;;14.05;67.80
71976;BME280;60680;52.182;5.398;2022-07-17T03:47:34;102801.41;;;14.06;68.39
71976;BME280;60680;52.182;5.398;2022-07-17T03:50:00;102795.31;;;14.05;68.81
71976;BME280;60680;52.182;5.398;2022-07-17T03:52:27;102801.41;;;14.06;68.36
71976;BME280;60680;52.182;5.398;2022-07-17T03:54:54;102812.88;;;14.02;68.92
71976;BME280;60680;52.182;5.398;2022-07-17T03:57:20;102819.25;;;13.95;69.63
71976;BME280;60680;52.182;5.398;2022-07-17T03:59:47;102818.63;;;13.86;69.82
71976;BME280;60680;52.182;5.398;2022-07-17T04:02:13;102816.88;;;13.87;69.18
71976;BME280;60680;52.182;5.398;2022-07-17T04:04:40;102825.63;;;13.86;69.00
71976;BME280;60680;52.182;5.398;2022-07-17T04:07:06;102828.94;;;13.91;68.65
71976;BME280;60680;52.182;5.398;2022-07-17T04:09:58;102822.72;;;13.95;68.34
71976;BME280;60680;52.182;5.398;2022-07-17T04:12:26;102827.06;;;13.96;68.92
71976;BME280;60680;52.182;5.398;2022-07-17T04:14:53;102832.53;;;13.89;68.63
71976;BME280;60680;52.182;5.398;2022-07-17T04:17:20;102826.47;;;13.86;69.31
71976;BME280;60680;52.182;5.398;2022-07-17T04:19:47;102830.00;;;13.85;68.86
71976;BME280;60680;52.182;5.398;2022-07-17T04:22:15;102842.38;;;13.80;69.53
71976;BME280;60680;52.182;5.398;2022-07-17T04:24:42;102826.88;;;13.74;69.40
71976;BME280;60680;52.182;5.398;2022-07-17T04:27:10;102833.06;;;13.72;70.00
71976;BME280;60680;52.182;5.398;2022-07-17T04:29:37;102833.03;;;13.73;69.23
71976;BME280;60680;52.182;5.398;2022-07-17T04:32:04;102832.88;;;13.78;69.33
71976;BME280;60680;52.182;5.398;2022-07-17T04:34:31;102831.97;;;13.79;69.78
71976;BME280;60680;52.182;5.398;2022-07-17T04:37:00;102825.03;;;13.78;69.58
71976;BME280;60680;52.182;5.398;2022-07-17T04:39:27;102830.22;;;13.79;68.85
71976;BME280;60680;52.182;5.398;2022-07-17T04:41:55;102825.78;;;13.81;69.15
71976;BME280;60680;52.182;5.398;2022-07-17T04:44:21;102824.84;;;13.84;68.45
71976;BME280;60680;52.182;5.398;2022-07-17T04:46:48;102821.28;;;13.85;68.93
71976;BME280;60680;52.182;5.398;2022-07-17T04:49:14;102827.53;;;13.81;69.55
71976;BME280;60680;52.182;5.398;2022-07-17T04:51:41;102833.69;;;13.80;68.94
71976;BME280;60680;52.182;5.398;2022-07-17T04:54:10;102822.38;;;13.79;69.16
71976;BME280;60680;52.182;5.398;2022-07-17T04:56:37;102817.88;;;13.83;69.76
71976;BME280;60680;52.182;5.398;2022-07-17T04:59:04;102806.41;;;13.87;69.27
71976;BME280;60680;52.182;5.398;2022-07-17T05:01:30;102815.06;;;13.89;69.30
71976;BME280;60680;52.182;5.398;2022-07-17T05:03:58;102816.88;;;13.87;69.85
71976;BME280;60680;52.182;5.398;2022-07-17T05:06:24;102814.06;;;13.93;69.09
71976;BME280;60680;52.182;5.398;2022-07-17T05:08:51;102812.25;;;13.95;69.68
71976;BME280;60680;52.182;5.398;2022-07-17T05:11:18;102801.56;;;14.01;68.84
71976;BME280;60680;52.182;5.398;2022-07-17T05:13:45;102795.13;;;14.12;68.83
71976;BME280;60680;52.182;5.398;2022-07-17T05:16:12;102798.44;;;14.17;68.97
71976;BME280;60680;52.182;5.398;2022-07-17T05:18:39;102794.91;;;14.18;68.65
71976;BME280;60680;52.182;5.398;2022-07-17T05:21:06;102800.06;;;14.19;67.79
71976;BME280;60680;52.182;5.398;2022-07-17T05:23:32;102795.66;;;14.21;68.15
71976;BME280;60680;52.182;5.398;2022-07-17T05:25:59;102805.28;;;14.21;68.73
71976;BME280;60680;52.182;5.398;2022-07-17T05:28:26;102808.44;;;14.31;68.87
71976;BME280;60680;52.182;5.398;2022-07-17T05:30:52;102812.66;;;14.35;68.20
71976;BME280;60680;52.182;5.398;2022-07-17T05:33:19;102820.16;;;14.45;67.88
71976;BME280;60680;52.182;5.398;2022-07-17T05:35:45;102820.78;;;14.52;68.04
71976;BME280;60680;52.182;5.398;2022-07-17T05:38:12;102810.97;;;14.59;66.70
71976;BME280;60680;52.182;5.398;2022-07-17T05:40:38;102802.06;;;14.64;67.17
71976;BME280;60680;52.182;5.398;2022-07-17T05:43:08;102797.69;;;14.63;67.11
71976;BME280;60680;52.182;5.398;2022-07-17T05:45:34;102801.25;;;14.62;67.40
71976;BME280;60680;52.182;5.398;2022-07-17T05:48:01;102802.59;;;14.73;67.16
71976;BME280;60680;52.182;5.398;2022-07-17T05:50:27;102809.44;;;14.77;66.84
71976;BME280;60680;52.182;5.398;2022-07-17T05:52:54;102810.91;;;14.85;67.14
71976;BME280;60680;52.182;5.398;2022-07-17T05:55:20;102820.47;;;14.86;66.71
71976;BME280;60680;52.182;5.398;2022-07-17T05:57:47;102810.72;;;14.90;66.48
71976;BME280;60680;52.182;5.398;2022-07-17T06:00:13;102812.41;;;14.91;66.32
71976;BME280;60680;52.182;5.398;2022-07-17T06:02:40;102828.84;;;14.96;65.73
71976;BME280;60680;52.182;5.398;2022-07-17T06:05:07;102831.78;;;15.11;64.94
71976;BME280;60680;52.182;5.398;2022-07-17T06:07:33;102822.38;;;15.28;64.58
71976;BME280;60680;52.182;5.398;2022-07-17T06:10:00;102826.41;;;15.59;64.23
71976;BME280;60680;52.182;5.398;2022-07-17T06:12:26;102828.16;;;15.60;63.83
71976;BME280;60680;52.182;5.398;2022-07-17T06:14:53;102824.16;;;15.50;64.45
71976;BME280;60680;52.182;5.398;2022-07-17T06:17:19;102830.25;;;15.50;64.49
71976;BME280;60680;52.182;5.398;2022-07-17T06:19:46;102845.09;;;15.52;64.29
71976;BME280;60680;52.182;5.398;2022-07-17T06:22:12;102844.06;;;15.56;64.51
71976;BME280;60680;52.182;5.398;2022-07-17T06:24:39;102850.78;;;15.63;64.31
71976;BME280;60680;52.182;5.398;2022-07-17T06:27:05;102857.72;;;15.64;63.79
71976;BME280;60680;52.182;5.398;2022-07-17T06:29:31;102858.41;;;15.69;63.74
71976;BME280;60680;52.182;5.398;2022-07-17T06:31:58;102856.44;;;15.76;63.69
71976;BME280;60680;52.182;5.398;2022-07-17T06:34:24;102853.56;;;15.82;64.29
71976;BME280;60680;52.182;5.398;2022-07-17T06:36:51;102864.63;;;15.90;63.19
71976;BME280;60680;52.182;5.398;2022-07-17T06:39:17;102863.56;;;15.94;63.07
71976;BME280;60680;52.182;5.398;2022-07-17T06:41:44;102865.94;;;16.00;62.09
71976;BME280;60680;52.182;5.398;2022-07-17T06:44:10;102878.34;;;15.97;61.10
71976;BME280;60680;52.182;5.398;2022-07-17T06:46:36;102876.25;;;16.05;61.65
71976;BME280;60680;52.182;5.398;2022-07-17T06:49:03;102886.63;;;16.08;61.04
71976;BME280;60680;52.182;5.398;2022-07-17T06:51:30;102875.69;;;16.19;62.37
71976;BME280;60680;52.182;5.398;2022-07-17T06:53:56;102871.75;;;16.29;60.80
71976;BME280;60680;52.182;5.398;2022-07-17T06:56:23;102873.97;;;16.38;60.80
71976;BME280;60680;52.182;5.398;2022-07-17T06:58:49;102864.78;;;16.48;60.51
71976;BME280;60680;52.182;5.398;2022-07-17T07:01:16;102867.22;;;16.53;60.05
71976;BME280;60680;52.182;5.398;2022-07-17T07:03:42;102872.47;;;16.53;59.47
71976;BME280;60680;52.182;5.398;2022-07-17T07:06:09;102873.09;;;16.60;59.76
71976;BME280;60680;52.182;5.398;2022-07-17T07:08:35;102875.44;;;16.66;58.75
71976;BME280;60680;52.182;5.398;2022-07-17T07:11:02;102871.63;;;16.73;57.27
71976;BME280;60680;52.182;5.398;2022-07-17T07:13:29;102875.84;;;16.77;57.74
71976;BME280;60680;52.182;5.398;2022-07-17T07:15:55;102881.50;;;16.88;57.24
71976;BME280;60680;52.182;5.398;2022-07-17T07:18:22;102868.97;;;16.94;56.11
71976;BME280;60680;52.182;5.398;2022-07-17T07:20:48;102868.00;;;16.96;55.71
71976;BME280;60680;52.182;5.398;2022-07-17T07:23:15;102868.66;;;17.01;56.49
71976;BME280;60680;52.182;5.398;2022-07-17T07:25:42;102871.63;;;17.12;56.27
71976;BME280;60680;52.182;5.398;2022-07-17T07:28:11;102876.56;;;17.20;56.25
71976;BME280;60680;52.182;5.398;2022-07-17T07:30:37;102871.13;;;17.23;56.04
71976;BME280;60680;52.182;5.398;2022-07-17T07:33:04;102879.91;;;17.24;56.22
71976;BME280;60680;52.182;5.398;2022-07-17T07:35:30;102873.50;;;17.29;56.01
71976;BME280;60680;52.182;5.398;2022-07-17T07:37:56;102864.13;;;17.43;56.32
71976;BME280;60680;52.182;5.398;2022-07-17T07:40:23;102865.47;;;17.51;56.30
71976;BME280;60680;52.182;5.398;2022-07-17T07:42:49;102874.75;;;17.59;55.81
71976;BME280;60680;52.182;5.398;2022-07-17T07:45:16;102872.69;;;17.65;55.73
71976;BME280;60680;52.182;5.398;2022-07-17T07:47:44;102876.03;;;17.69;55.91
71976;BME280;60680;52.182;5.398;2022-07-17T07:50:11;102880.00;;;17.78;56.09
71976;BME280;60680;52.182;5.398;2022-07-17T07:52:39;102884.00;;;17.86;55.86
71976;BME280;60680;52.182;5.398;2022-07-17T07:55:07;102876.66;;;17.93;55.77
71976;BME280;60680;52.182;5.398;2022-07-17T07:57:34;102877.06;;;18.03;55.96
71976;BME280;60680;52.182;5.398;2022-07-17T08:00:01;102875.81;;;18.10;55.82
71976;BME280;60680;52.182;5.398;2022-07-17T08:02:28;102872.66;;;18.21;55.13
71976;BME280;60680;52.182;5.398;2022-07-17T08:04:54;102880.41;;;18.24;54.53
71976;BME280;60680;52.182;5.398;2022-07-17T08:07:21;102872.22;;;18.30;54.84
71976;BME280;60680;52.182;5.398;2022-07-17T08:09:48;102864.72;;;18.38;54.92
71976;BME280;60680;52.182;5.398;2022-07-17T08:12:14;102873.22;;;18.45;54.39
71976;BME280;60680;52.182;5.398;2022-07-17T08:15:01;102872.13;;;18.49;54.00
71976;BME280;60680;52.182;5.398;2022-07-17T08:17:27;102875.28;;;18.56;53.25
71976;BME280;60680;52.182;5.398;2022-07-17T08:19:54;102866.41;;;18.74;54.60
71976;BME280;60680;52.182;5.398;2022-07-17T08:22:20;102864.09;;;18.85;53.12
71976;BME280;60680;52.182;5.398;2022-07-17T08:25:07;102870.22;;;19.02;53.50
71976;BME280;60680;52.182;5.398;2022-07-17T08:27:38;102866.69;;;19.19;53.59
71976;BME280;60680;52.182;5.398;2022-07-17T08:30:07;102865.59;;;19.23;52.38
71976;BME280;60680;52.182;5.398;2022-07-17T08:32:34;102854.94;;;19.24;52.46
71976;BME280;60680;52.182;5.398;2022-07-17T08:35:01;102858.69;;;19.20;52.21
71976;BME280;60680;52.182;5.398;2022-07-17T08:37:27;102867.56;;;19.19;52.83
71976;BME280;60680;52.182;5.398;2022-07-17T08:39:56;102862.88;;;19.24;53.18
71976;BME280;60680;52.182;5.398;2022-07-17T08:42:23;102866.19;;;19.28;52.63
71976;BME280;60680;52.182;5.398;2022-07-17T08:44:49;102871.38;;;19.29;51.69
71976;BME280;60680;52.182;5.398;2022-07-17T08:47:16;102877.41;;;19.31;52.15
71976;BME280;60680;52.182;5.398;2022-07-17T08:49:45;102869.44;;;19.33;52.31
71976;BME280;60680;52.182;5.398;2022-07-17T08:52:12;102870.78;;;19.40;51.77
71976;BME280;60680;52.182;5.398;2022-07-17T08:54:40;102867.56;;;19.51;51.73
71976;BME280;60680;52.182;5.398;2022-07-17T08:57:08;102869.41;;;19.65;52.17
71976;BME280;60680;52.182;5.398;2022-07-17T08:59:35;102860.06;;;19.75;52.10
71976;BME280;60680;52.182;5.398;2022-07-17T09:02:03;102865.78;;;19.83;51.29
71976;BME280;60680;52.182;5.398;2022-07-17T09:04:30;102866.44;;;19.87;51.46
71976;BME280;60680;52.182;5.398;2022-07-17T09:06:59;102858.91;;;19.95;51.56
71976;BME280;60680;52.182;5.398;2022-07-17T09:09:28;102857.78;;;19.99;51.64
71976;BME280;60680;52.182;5.398;2022-07-17T09:11:55;102858.41;;;19.88;51.19
71976;BME280;60680;52.182;5.398;2022-07-17T09:14:38;102848.94;;;20.00;51.95
71976;BME280;60680;52.182;5.398;2022-07-17T09:17:07;102849.03;;;19.99;51.37
71976;BME280;60680;52.182;5.398;2022-07-17T09:19:36;102854.03;;;20.03;52.09
71976;BME280;60680;52.182;5.398;2022-07-17T09:24:55;102856.59;;;20.05;51.32
71976;BME280;60680;52.182;5.398;2022-07-17T09:32:27;102849.72;;;20.16;50.84
71976;BME280;60680;52.182;5.398;2022-07-17T09:34:55;102853.88;;;20.21;51.27
71976;BME280;60680;52.182;5.398;2022-07-17T09:37:22;102845.09;;;20.20;50.36
71976;BME280;60680;52.182;5.398;2022-07-17T09:39:50;102854.75;;;20.35;51.62
71976;BME280;60680;52.182;5.398;2022-07-17T09:42:31;102859.41;;;20.46;50.30
71976;BME280;60680;52.182;5.398;2022-07-17T09:45:04;102859.03;;;20.52;50.49
71976;BME280;60680;52.182;5.398;2022-07-17T09:47:33;102851.59;;;20.45;49.78
71976;BME280;60680;52.182;5.398;2022-07-17T09:50:00;102860.28;;;20.47;49.64
71976;BME280;60680;52.182;5.398;2022-07-17T09:52:30;102854.00;;;20.64;49.80
71976;BME280;60680;52.182;5.398;2022-07-17T09:54:58;102851.25;;;20.65;49.30
71976;BME280;60680;52.182;5.398;2022-07-17T09:57:47;102851.63;;;20.73;49.88
71976;BME280;60680;52.182;5.398;2022-07-17T10:00:14;102847.19;;;20.88;49.79
71976;BME280;60680;52.182;5.398;2022-07-17T10:02:48;102848.31;;;21.13;51.00
71976;BME280;60680;52.182;5.398;2022-07-17T10:05:15;102852.91;;;21.24;50.33
71976;BME280;60680;52.182;5.398;2022-07-17T10:07:43;102852.06;;;21.23;48.67
71976;BME280;60680;52.182;5.398;2022-07-17T10:10:13;102844.06;;;21.10;48.99
71976;BME280;60680;52.182;5.398;2022-07-17T10:12:42;102848.00;;;21.17;49.30
71976;BME280;60680;52.182;5.398;2022-07-17T10:15:10;102843.06;;;21.26;49.36
71976;BME280;60680;52.182;5.398;2022-07-17T10:17:37;102840.97;;;21.31;48.35
71976;BME280;60680;52.182;5.398;2022-07-17T10:20:11;102847.03;;;21.33;48.16
71976;BME280;60680;52.182;5.398;2022-07-17T10:22:45;102851.38;;;21.34;47.70
71976;BME280;60680;52.182;5.398;2022-07-17T10:25:14;102854.88;;;21.34;47.77
71976;BME280;60680;52.182;5.398;2022-07-17T10:27:55;102851.78;;;21.42;48.46
71976;BME280;60680;52.182;5.398;2022-07-17T10:30:27;102850.13;;;21.54;48.24
71976;BME280;60680;52.182;5.398;2022-07-17T10:32:59;102849.94;;;21.57;48.19
71976;BME280;60680;52.182;5.398;2022-07-17T10:35:28;102855.00;;;21.60;47.98
71976;BME280;60680;52.182;5.398;2022-07-17T10:38:09;102850.72;;;21.72;48.70
71976;BME280;60680;52.182;5.398;2022-07-17T10:40:38;102855.06;;;21.73;47.84
71976;BME280;60680;52.182;5.398;2022-07-17T10:43:05;102862.53;;;21.81;47.77
71976;BME280;60680;52.182;5.398;2022-07-17T10:45:34;102858.69;;;21.72;46.84
71976;BME280;60680;52.182;5.398;2022-07-17T10:48:10;102861.81;;;21.91;47.88
71976;BME280;60680;52.182;5.398;2022-07-17T10:50:41;102858.97;;;22.07;47.39
71976;BME280;60680;52.182;5.398;2022-07-17T10:55:57;102852.50;;;22.11;46.44
71976;BME280;60680;52.182;5.398;2022-07-17T10:58:29;102854.97;;;22.14;46.52
71976;BME280;60680;52.182;5.398;2022-07-17T11:08:47;102859.06;;;22.18;44.92
71976;BME280;60680;52.182;5.398;2022-07-17T11:11:16;102853.19;;;22.28;45.48
71976;BME280;60680;52.182;5.398;2022-07-17T11:13:53;102853.53;;;22.49;45.40
71976;BME280;60680;52.182;5.398;2022-07-17T11:16:29;102842.78;;;22.63;45.95
71976;BME280;60680;52.182;5.398;2022-07-17T11:18:57;102842.06;;;22.74;44.03
71976;BME280;60680;52.182;5.398;2022-07-17T11:21:25;102841.09;;;22.75;44.45
71976;BME280;60680;52.182;5.398;2022-07-17T11:23:53;102839.59;;;22.84;43.99
71976;BME280;60680;52.182;5.398;2022-07-17T11:26:22;102842.78;;;22.89;44.28
71976;BME280;60680;52.182;5.398;2022-07-17T11:28:49;102842.66;;;22.90;44.69
71976;BME280;60680;52.182;5.398;2022-07-17T11:31:20;102845.50;;;23.00;44.16
71976;BME280;60680;52.182;5.398;2022-07-17T11:36:32;102832.66;;;23.07;44.16
71976;BME280;60680;52.182;5.398;2022-07-17T11:39:08;102831.88;;;23.17;44.05
71976;BME280;60680;52.182;5.398;2022-07-17T11:41:49;102834.75;;;23.27;43.88
71976;BME280;60680;52.182;5.398;2022-07-17T11:44:20;102827.81;;;23.25;41.98
71976;BME280;60680;52.182;5.398;2022-07-17T11:46:49;102827.28;;;23.32;43.01
71976;BME280;60680;52.182;5.398;2022-07-17T11:49:30;102829.97;;;23.44;42.99
71976;BME280;60680;52.182;5.398;2022-07-17T11:51:58;102841.88;;;23.51;42.17
71976;BME280;60680;52.182;5.398;2022-07-17T11:54:25;102840.06;;;23.51;41.83
71976;BME280;60680;52.182;5.398;2022-07-17T11:56:57;102835.69;;;23.50;42.63
71976;BME280;60680;52.182;5.398;2022-07-17T11:59:30;102840.00;;;23.64;42.89
71976;BME280;60680;52.182;5.398;2022-07-17T12:02:16;102842.41;;;23.67;41.52
71976;BME280;60680;52.182;5.398;2022-07-17T12:04:52;102837.34;;;23.64;43.02
71976;BME280;60680;52.182;5.398;2022-07-17T12:07:20;102835.50;;;23.65;42.25
71976;BME280;60680;52.182;5.398;2022-07-17T12:09:47;102834.56;;;23.66;42.41
71976;BME280;60680;52.182;5.398;2022-07-17T12:12:24;102837.81;;;23.69;41.66
71976;BME280;60680;52.182;5.398;2022-07-17T12:14:54;102826.41;;;23.56;40.93
71976;BME280;60680;52.182;5.398;2022-07-17T12:17:22;102833.09;;;23.61;41.84
71976;BME280;60680;52.182;5.398;2022-07-17T12:19:50;102828.38;;;23.65;40.53
71976;BME280;60680;52.182;5.398;2022-07-17T12:22:16;102828.16;;;23.68;41.25
71976;BME280;60680;52.182;5.398;2022-07-17T12:24:45;102828.03;;;23.83;41.96
71976;BME280;60680;52.182;5.398;2022-07-17T12:27:13;102815.00;;;24.02;41.08
71976;BME280;60680;52.182;5.398;2022-07-17T12:29:42;102810.91;;;24.09;40.88
71976;BME280;60680;52.182;5.398;2022-07-17T12:32:11;102806.44;;;24.10;40.79
71976;BME280;60680;52.182;5.398;2022-07-17T12:34:42;102795.69;;;24.11;40.84
71976;BME280;60680;52.182;5.398;2022-07-17T12:37:17;102793.75;;;24.25;40.03
71976;BME280;60680;52.182;5.398;2022-07-17T12:39:44;102786.03;;;24.21;40.16
71976;BME280;60680;52.182;5.398;2022-07-17T12:42:11;102786.63;;;24.36;40.96
71976;BME280;60680;52.182;5.398;2022-07-17T12:44:37;102794.03;;;24.44;39.75
71976;BME280;60680;52.182;5.398;2022-07-17T12:47:04;102787.00;;;24.43;39.19
71976;BME280;60680;52.182;5.398;2022-07-17T12:49:31;102785.66;;;24.37;38.18
71976;BME280;60680;52.182;5.398;2022-07-17T12:51:58;102789.69;;;24.54;38.96
71976;BME280;60680;52.182;5.398;2022-07-17T12:54:25;102791.63;;;24.64;38.74
71976;BME280;60680;52.182;5.398;2022-07-17T12:56:51;102792.59;;;24.74;38.55
71976;BME280;60680;52.182;5.398;2022-07-17T12:59:18;102786.56;;;24.72;39.07
71976;BME280;60680;52.182;5.398;2022-07-17T13:01:45;102791.38;;;24.78;37.40
71976;BME280;60680;52.182;5.398;2022-07-17T13:04:12;102785.59;;;24.61;38.33
71976;BME280;60680;52.182;5.398;2022-07-17T13:06:39;102784.59;;;24.74;37.57
71976;BME280;60680;52.182;5.398;2022-07-17T13:09:07;102776.63;;;24.74;37.03
71976;BME280;60680;52.182;5.398;2022-07-17T13:11:33;102780.56;;;24.46;37.39
71976;BME280;60680;52.182;5.398;2022-07-17T13:14:00;102772.47;;;24.47;36.83
71976;BME280;60680;52.182;5.398;2022-07-17T13:16:28;102768.78;;;24.61;37.49